sensor_id;sensor_type;location;lat;lon;timestamp;temperature;humidity
4787;DHT22;62338;48.832;9.422;2024-02-21T00:01:58;5.30;99.90
4787;DHT22;62338;48.832;9.422;2024-02-21T00:03:59;5.40;99.90
4787;DHT22;62338;48.832;9.422;2024-02-21T00:06:01;5.40;99.90
4787;DHT22;62338;48.832;9.422;2024-02-21T00:08:04;5.40;99.90
4787;DHT22;62338;48.832;9.422;2024-02-21T00:10:06;5.40;99.90
4787;DHT22;62338;48.832;9.422;2024-02-21T00:12:08;5.40;99.90
4787;DHT22;62338;48.832;9.422;2024-02-21T00:14:10;5.50;99.90
4787;DHT22;62338;48.832;9.422;2024-02-21T00:16:12;5.50;99.90
4787;DHT22;62338;48.832;9.422;2024-02-21T00:18:15;5.50;99.90
4787;DHT22;62338;48.832;9.422;2024-02-21T00:20:17;5.50;99.90
4787;DHT22;62338;48.832;9.422;2024-02-21T00:22:19;5.40;99.90
4787;DHT22;62338;48.832;9.422;2024-02-21T00:24:20;5.40;99.90
4787;DHT22;62338;48.832;9.422;2024-02-21T00:26:22;5.40;99.90
4787;DHT22;62338;48.832;9.422;2024-02-21T00:28:24;5.30;99.90
4787;DHT22;62338;48.832;9.422;2024-02-21T00:30:26;5.30;99.90
4787;DHT22;62338;48.832;9.422;2024-02-21T00:32:27;5.20;99.90
4787;DHT22;62338;48.832;9.422;2024-02-21T00:34:29;5.10;99.90
4787;DHT22;62338;48.832;9.422;2024-02-21T00:36:31;5.10;99.90
4787;DHT22;62338;48.832;9.422;2024-02-21T00:38:33;5.00;99.90
4787;DHT22;62338;48.832;9.422;2024-02-21T00:40:35;5.10;99.90
4787;DHT22;62338;48.832;9.422;2024-02-21T00:42:37;5.10;99.90
4787;DHT22;62338;48.832;9.422;2024-02-21T00:44:38;5.10;99.90
4787;DHT22;62338;48.832;9.422;2024-02-21T00:46:40;5.10;99.90
4787;DHT22;62338;48.832;9.422;2024-02-21T00:48:42;5.10;99.90
4787;DHT22;62338;48.832;9.422;2024-02-21T00:50:44;5.10;99.90
4787;DHT22;62338;48.832;9.422;2024-02-21T00:52:46;5.10;99.90
4787;DHT22;62338;48.832;9.422;2024-02-21T00:54:47;5.20;99.90
4787;DHT22;62338;48.832;9.422;2024-02-21T00:56:55;5.10;99.90
4787;DHT22;62338;48.832;9.422;2024-02-21T00:58:57;5.10;99.90
4787;DHT22;62338;48.832;9.422;2024-02-21T01:00:59;5.10;99.90
4787;DHT22;62338;48.832;9.422;2024-02-21T01:03:02;5.10;99.90
4787;DHT22;62338;48.832;9.422;2024-02-21T01:05:04;5.10;99.90
4787;DHT22;62338;48.832;9.422;2024-02-21T01:07:05;5.10;99.90
4787;DHT22;62338;48.832;9.422;2024-02-21T01:09:07;5.10;99.90
4787;DHT22;62338;48.832;9.422;2024-02-21T01:11:09;5.20;99.90
4787;DHT22;62338;48.832;9.422;2024-02-21T01:13:11;5.10;99.90
4787;DHT22;62338;48.832;9.422;2024-02-21T01:15:13;5.20;99.90
4787;DHT22;62338;48.832;9.422;2024-02-21T01:17:14;5.20;99.90
4787;DHT22;62338;48.832;9.422;2024-02-21T01:19:16;5.20;99.90
4787;DHT22;62338;48.832;9.422;2024-02-21T01:21:18;5.20;99.90
4787;DHT22;62338;48.832;9.422;2024-02-21T01:23:20;5.20;99.90
4787;DHT22;62338;48.832;9.422;2024-02-21T01:25:22;5.20;99.90
4787;DHT22;62338;48.832;9.422;2024-02-21T01:27:24;5.20;99.90
4787;DHT22;62338;48.832;9.422;2024-02-21T01:29:26;5.20;99.90
4787;DHT22;62338;48.832;9.422;2024-02-21T01:31:28;5.20;99.90
4787;DHT22;62338;48.832;9.422;2024-02-21T01:33:29;5.20;99.90
4787;DHT22;62338;48.832;9.422;2024-02-21T01:35:36;5.10;99.90
4787;DHT22;62338;48.832;9.422;2024-02-21T01:37:38;5.10;99.90
4787;DHT22;62338;48.832;9.422;2024-02-21T01:39:40;5.00;99.90
4787;DHT22;62338;48.832;9.422;2024-02-21T01:41:42;5.00;99.90
4787;DHT22;62338;48.832;9.422;2024-02-21T01:43:43;5.00;99.90
4787;DHT22;62338;48.832;9.422;2024-02-21T01:45:50;5.00;99.90
4787;DHT22;62338;48.832;9.422;2024-02-21T01:47:53;5.00;99.90
4787;DHT22;62338;48.832;9.422;2024-02-21T01:49:55;5.00;99.90
4787;DHT22;62338;48.832;9.422;2024-02-21T01:51:57;4.90;99.90
4787;DHT22;62338;48.832;9.422;2024-02-21T01:53:59;5.00;99.90
4787;DHT22;62338;48.832;9.422;2024-02-21T01:56:02;4.90;99.90
4787;DHT22;62338;48.832;9.422;2024-02-21T01:58:04;4.90;99.90
4787;DHT22;62338;48.832;9.422;2024-02-21T02:00:07;4.90;99.90
4787;DHT22;62338;48.832;9.422;2024-02-21T02:02:09;4.90;99.90
4787;DHT22;62338;48.832;9.422;2024-02-21T02:04:11;5.00;99.90
4787;DHT22;62338;48.832;9.422;2024-02-21T02:06:13;4.90;99.90
4787;DHT22;62338;48.832;9.422;2024-02-21T02:08:17;4.90;99.90
4787;DHT22;62338;48.832;9.422;2024-02-21T02:10:19;4.90;99.90
4787;DHT22;62338;48.832;9.422;2024-02-21T02:12:20;4.90;99.90
4787;DHT22;62338;48.832;9.422;2024-02-21T02:14:22;4.90;99.90
4787;DHT22;62338;48.832;9.422;2024-02-21T02:16:24;4.90;99.90
4787;DHT22;62338;48.832;9.422;2024-02-21T02:18:26;4.90;99.90
4787;DHT22;62338;48.832;9.422;2024-02-21T02:20:28;4.90;99.90
4787;DHT22;62338;48.832;9.422;2024-02-21T02:22:31;4.90;99.90
4787;DHT22;62338;48.832;9.422;2024-02-21T02:24:35;4.90;99.90
4787;DHT22;62338;48.832;9.422;2024-02-21T02:26:37;4.90;99.90
4787;DHT22;62338;48.832;9.422;2024-02-21T02:28:38;4.90;99.90
4787;DHT22;62338;48.832;9.422;2024-02-21T02:30:40;4.80;99.90
4787;DHT22;62338;48.832;9.422;2024-02-21T02:32:45;4.90;99.90
4787;DHT22;62338;48.832;9.422;2024-02-21T02:34:50;4.80;99.90
4787;DHT22;62338;48.832;9.422;2024-02-21T02:36:52;4.80;99.90
4787;DHT22;62338;48.832;9.422;2024-02-21T02:38:54;4.80;99.90
4787;DHT22;62338;48.832;9.422;2024-02-21T02:40:55;4.80;99.90
4787;DHT22;62338;48.832;9.422;2024-02-21T02:42:57;4.70;99.90
4787;DHT22;62338;48.832;9.422;2024-02-21T02:44:59;4.70;99.90
4787;DHT22;62338;48.832;9.422;2024-02-21T02:47:01;4.80;99.90
4787;DHT22;62338;48.832;9.422;2024-02-21T02:49:02;4.70;99.90
4787;DHT22;62338;48.832;9.422;2024-02-21T02:51:04;4.70;99.90
4787;DHT22;62338;48.832;9.422;2024-02-21T02:53:06;4.70;99.90
4787;DHT22;62338;48.832;9.422;2024-02-21T02:55:08;4.70;99.90
4787;DHT22;62338;48.832;9.422;2024-02-21T02:57:10;4.80;99.90
4787;DHT22;62338;48.832;9.422;2024-02-21T02:59:11;4.80;99.90
4787;DHT22;62338;48.832;9.422;2024-02-21T03:01:13;4.80;99.90
4787;DHT22;62338;48.832;9.422;2024-02-21T03:03:15;4.80;99.90
4787;DHT22;62338;48.832;9.422;2024-02-21T03:05:19;4.80;99.90
4787;DHT22;62338;48.832;9.422;2024-02-21T03:07:21;4.90;99.90
4787;DHT22;62338;48.832;9.422;2024-02-21T03:09:22;4.80;99.90
4787;DHT22;62338;48.832;9.422;2024-02-21T03:11:24;4.80;99.90
4787;DHT22;62338;48.832;9.422;2024-02-21T03:13:31;4.70;99.90
4787;DHT22;62338;48.832;9.422;2024-02-21T03:15:33;4.70;99.90
4787;DHT22;62338;48.832;9.422;2024-02-21T03:17:35;4.60;99.90
4787;DHT22;62338;48.832;9.422;2024-02-21T03:19:37;4.60;99.90
4787;DHT22;62338;48.832;9.422;2024-02-21T03:21:38;4.50;99.90
4787;DHT22;62338;48.832;9.422;2024-02-21T03:23:40;4.50;99.90
4787;DHT22;62338;48.832;9.422;2024-02-21T03:25:42;4.50;99.90
4787;DHT22;62338;48.832;9.422;2024-02-21T03:27:44;4.40;99.90
4787;DHT22;62338;48.832;9.422;2024-02-21T03:29:45;4.40;99.90
4787;DHT22;62338;48.832;9.422;2024-02-21T03:31:47;4.40;99.90
4787;DHT22;62338;48.832;9.422;2024-02-21T03:33:49;4.40;99.90
4787;DHT22;62338;48.832;9.422;2024-02-21T03:35:51;4.40;99.90
4787;DHT22;62338;48.832;9.422;2024-02-21T03:37:53;4.40;99.90
4787;DHT22;62338;48.832;9.422;2024-02-21T03:39:55;4.40;99.90
4787;DHT22;62338;48.832;9.422;2024-02-21T03:41:57;4.40;99.90
4787;DHT22;62338;48.832;9.422;2024-02-21T03:43:59;4.40;99.90
4787;DHT22;62338;48.832;9.422;2024-02-21T03:46:01;4.40;99.90
4787;DHT22;62338;48.832;9.422;2024-02-21T03:48:03;4.40;99.90
4787;DHT22;62338;48.832;9.422;2024-02-21T03:50:06;4.30;99.90
4787;DHT22;62338;48.832;9.422;2024-02-21T03:52:08;4.30;99.90
4787;DHT22;62338;48.832;9.422;2024-02-21T03:54:10;4.30;99.90
4787;DHT22;62338;48.832;9.422;2024-02-21T03:56:12;4.30;99.90
4787;DHT22;62338;48.832;9.422;2024-02-21T03:58:14;4.30;99.90
4787;DHT22;62338;48.832;9.422;2024-02-21T04:00:16;4.30;99.90
4787;DHT22;62338;48.832;9.422;2024-02-21T04:02:17;4.30;99.90
4787;DHT22;62338;48.832;9.422;2024-02-21T04:04:20;4.30;99.90
4787;DHT22;62338;48.832;9.422;2024-02-21T04:06:22;4.30;99.90
4787;DHT22;62338;48.832;9.422;2024-02-21T04:08:23;4.30;99.90
4787;DHT22;62338;48.832;9.422;2024-02-21T04:10:25;4.30;99.90
4787;DHT22;62338;48.832;9.422;2024-02-21T04:12:27;4.30;99.90
4787;DHT22;62338;48.832;9.422;2024-02-21T04:14:29;4.30;99.90
4787;DHT22;62338;48.832;9.422;2024-02-21T04:16:30;4.40;99.90
4787;DHT22;62338;48.832;9.422;2024-02-21T04:18:32;4.40;99.90
4787;DHT22;62338;48.832;9.422;2024-02-21T04:20:34;4.50;99.90
4787;DHT22;62338;48.832;9.422;2024-02-21T04:22:36;4.50;99.90
4787;DHT22;62338;48.832;9.422;2024-02-21T04:24:38;4.50;99.90
4787;DHT22;62338;48.832;9.422;2024-02-21T04:26:40;4.60;99.90
4787;DHT22;62338;48.832;9.422;2024-02-21T04:28:42;4.50;99.90
4787;DHT22;62338;48.832;9.422;2024-02-21T04:30:46;4.60;99.90
4787;DHT22;62338;48.832;9.422;2024-02-21T04:32:48;4.60;99.90
4787;DHT22;62338;48.832;9.422;2024-02-21T04:34:49;4.60;99.90
4787;DHT22;62338;48.832;9.422;2024-02-21T04:36:51;4.70;99.90
4787;DHT22;62338;48.832;9.422;2024-02-21T04:38:53;4.70;99.90
4787;DHT22;62338;48.832;9.422;2024-02-21T04:40:55;4.60;99.90
4787;DHT22;62338;48.832;9.422;2024-02-21T04:43:00;4.60;99.90
4787;DHT22;62338;48.832;9.422;2024-02-21T04:45:01;4.60;99.90
4787;DHT22;62338;48.832;9.422;2024-02-21T04:47:03;4.50;99.90
4787;DHT22;62338;48.832;9.422;2024-02-21T04:49:05;4.50;99.90
4787;DHT22;62338;48.832;9.422;2024-02-21T04:51:07;4.50;99.90
4787;DHT22;62338;48.832;9.422;2024-02-21T04:53:09;4.50;99.90
4787;DHT22;62338;48.832;9.422;2024-02-21T04:55:10;4.50;99.90
4787;DHT22;62338;48.832;9.422;2024-02-21T04:57:12;4.50;99.90
4787;DHT22;62338;48.832;9.422;2024-02-21T04:59:18;4.50;99.90
4787;DHT22;62338;48.832;9.422;2024-02-21T05:01:20;4.50;99.90
4787;DHT22;62338;48.832;9.422;2024-02-21T05:03:22;4.40;99.90
4787;DHT22;62338;48.832;9.422;2024-02-21T05:05:23;4.30;99.90
4787;DHT22;62338;48.832;9.422;2024-02-21T05:07:26;4.20;99.90
4787;DHT22;62338;48.832;9.422;2024-02-21T05:09:27;4.10;99.90
4787;DHT22;62338;48.832;9.422;2024-02-21T05:11:29;4.10;99.90
4787;DHT22;62338;48.832;9.422;2024-02-21T05:13:31;4.10;99.90
4787;DHT22;62338;48.832;9.422;2024-02-21T05:15:33;4.10;99.90
4787;DHT22;62338;48.832;9.422;2024-02-21T05:17:34;4.00;99.90
4787;DHT22;62338;48.832;9.422;2024-02-21T05:19:36;4.00;99.90
4787;DHT22;62338;48.832;9.422;2024-02-21T05:21:38;3.90;99.90
4787;DHT22;62338;48.832;9.422;2024-02-21T05:23:40;3.90;99.90
4787;DHT22;62338;48.832;9.422;2024-02-21T05:25:42;3.90;99.90
4787;DHT22;62338;48.832;9.422;2024-02-21T05:27:43;3.90;99.90
4787;DHT22;62338;48.832;9.422;2024-02-21T05:29:45;3.90;99.90
4787;DHT22;62338;48.832;9.422;2024-02-21T05:33:55;3.80;99.90
4787;DHT22;62338;48.832;9.422;2024-02-21T05:35:56;3.80;99.90
4787;DHT22;62338;48.832;9.422;2024-02-21T05:37:58;3.80;99.90
4787;DHT22;62338;48.832;9.422;2024-02-21T05:40:01;3.80;99.90
4787;DHT22;62338;48.832;9.422;2024-02-21T05:42:03;3.70;99.90
4787;DHT22;62338;48.832;9.422;2024-02-21T05:44:04;3.70;99.90
4787;DHT22;62338;48.832;9.422;2024-02-21T05:46:06;3.70;99.90
4787;DHT22;62338;48.832;9.422;2024-02-21T05:48:08;3.70;99.90
4787;DHT22;62338;48.832;9.422;2024-02-21T05:50:10;3.60;99.90
4787;DHT22;62338;48.832;9.422;2024-02-21T05:52:12;3.60;99.90
4787;DHT22;62338;48.832;9.422;2024-02-21T05:54:14;3.60;99.90
4787;DHT22;62338;48.832;9.422;2024-02-21T05:56:16;3.60;99.90
4787;DHT22;62338;48.832;9.422;2024-02-21T05:58:19;3.60;99.90
4787;DHT22;62338;48.832;9.422;2024-02-21T06:00:21;3.60;99.90
4787;DHT22;62338;48.832;9.422;2024-02-21T06:02:23;3.60;99.90
4787;DHT22;62338;48.832;9.422;2024-02-21T06:04:24;3.70;99.90
4787;DHT22;62338;48.832;9.422;2024-02-21T06:06:26;3.70;99.90
4787;DHT22;62338;48.832;9.422;2024-02-21T06:08:28;3.80;99.90
4787;DHT22;62338;48.832;9.422;2024-02-21T06:10:30;3.90;99.90
4787;DHT22;62338;48.832;9.422;2024-02-21T06:12:32;3.90;99.90
4787;DHT22;62338;48.832;9.422;2024-02-21T06:14:34;3.90;99.90
4787;DHT22;62338;48.832;9.422;2024-02-21T06:16:35;4.00;99.90
4787;DHT22;62338;48.832;9.422;2024-02-21T06:18:37;4.00;99.90
4787;DHT22;62338;48.832;9.422;2024-02-21T06:20:39;4.00;99.90
4787;DHT22;62338;48.832;9.422;2024-02-21T06:22:42;4.00;99.90
4787;DHT22;62338;48.832;9.422;2024-02-21T06:24:44;3.90;99.90
4787;DHT22;62338;48.832;9.422;2024-02-21T06:26:45;3.80;99.90
4787;DHT22;62338;48.832;9.422;2024-02-21T06:28:47;3.90;99.90
4787;DHT22;62338;48.832;9.422;2024-02-21T06:30:49;3.90;99.90
4787;DHT22;62338;48.832;9.422;2024-02-21T06:32:51;3.90;99.90
4787;DHT22;62338;48.832;9.422;2024-02-21T06:34:53;3.90;99.90
4787;DHT22;62338;48.832;9.422;2024-02-21T06:36:54;3.90;99.90
4787;DHT22;62338;48.832;9.422;2024-02-21T06:38:56;4.00;99.90
4787;DHT22;62338;48.832;9.422;2024-02-21T06:40:58;4.00;99.90
4787;DHT22;62338;48.832;9.422;2024-02-21T06:43:02;4.10;99.90
4787;DHT22;62338;48.832;9.422;2024-02-21T06:45:04;4.10;99.90
4787;DHT22;62338;48.832;9.422;2024-02-21T06:47:06;4.20;99.90
4787;DHT22;62338;48.832;9.422;2024-02-21T06:49:09;4.30;99.90
4787;DHT22;62338;48.832;9.422;2024-02-21T06:51:17;4.30;99.90
4787;DHT22;62338;48.832;9.422;2024-02-21T06:53:19;4.30;99.90
4787;DHT22;62338;48.832;9.422;2024-02-21T06:55:20;4.30;99.90
4787;DHT22;62338;48.832;9.422;2024-02-21T06:57:22;4.30;99.90
4787;DHT22;62338;48.832;9.422;2024-02-21T06:59:24;4.30;99.90
4787;DHT22;62338;48.832;9.422;2024-02-21T07:01:26;4.50;99.90
4787;DHT22;62338;48.832;9.422;2024-02-21T07:03:28;4.60;99.90
4787;DHT22;62338;48.832;9.422;2024-02-21T07:05:29;4.80;99.90
4787;DHT22;62338;48.832;9.422;2024-02-21T07:07:31;4.80;99.90
4787;DHT22;62338;48.832;9.422;2024-02-21T07:09:33;4.90;99.90
4787;DHT22;62338;48.832;9.422;2024-02-21T07:11:35;5.00;99.90
4787;DHT22;62338;48.832;9.422;2024-02-21T07:13:37;5.10;99.90
4787;DHT22;62338;48.832;9.422;2024-02-21T07:15:39;5.20;99.90
4787;DHT22;62338;48.832;9.422;2024-02-21T07:17:41;5.30;99.90
4787;DHT22;62338;48.832;9.422;2024-02-21T07:19:44;5.60;99.90
4787;DHT22;62338;48.832;9.422;2024-02-21T07:21:46;5.60;99.90
4787;DHT22;62338;48.832;9.422;2024-02-21T07:23:47;5.70;99.90
4787;DHT22;62338;48.832;9.422;2024-02-21T07:25:49;5.80;99.90
4787;DHT22;62338;48.832;9.422;2024-02-21T07:27:51;5.90;99.90
4787;DHT22;62338;48.832;9.422;2024-02-21T07:29:53;6.00;99.90
4787;DHT22;62338;48.832;9.422;2024-02-21T07:31:55;6.00;99.90
4787;DHT22;62338;48.832;9.422;2024-02-21T07:33:57;6.10;99.90
4787;DHT22;62338;48.832;9.422;2024-02-21T07:35:59;6.30;99.90
4787;DHT22;62338;48.832;9.422;2024-02-21T07:38:01;6.70;99.90
4787;DHT22;62338;48.832;9.422;2024-02-21T07:40:06;7.00;99.90
4787;DHT22;62338;48.832;9.422;2024-02-21T07:42:07;7.20;99.90
4787;DHT22;62338;48.832;9.422;2024-02-21T07:44:09;7.30;99.90
4787;DHT22;62338;48.832;9.422;2024-02-21T07:46:13;7.50;99.90
4787;DHT22;62338;48.832;9.422;2024-02-21T07:48:14;7.60;99.90
4787;DHT22;62338;48.832;9.422;2024-02-21T07:50:16;7.70;99.90
4787;DHT22;62338;48.832;9.422;2024-02-21T07:52:18;7.70;99.90
4787;DHT22;62338;48.832;9.422;2024-02-21T07:54:20;7.70;99.90
4787;DHT22;62338;48.832;9.422;2024-02-21T07:56:22;7.50;99.90
4787;DHT22;62338;48.832;9.422;2024-02-21T07:58:24;7.40;99.90
4787;DHT22;62338;48.832;9.422;2024-02-21T08:00:25;7.40;99.90
4787;DHT22;62338;48.832;9.422;2024-02-21T08:02:27;7.50;99.90
4787;DHT22;62338;48.832;9.422;2024-02-21T08:04:29;7.60;99.90
4787;DHT22;62338;48.832;9.422;2024-02-21T08:06:31;8.00;99.90
4787;DHT22;62338;48.832;9.422;2024-02-21T08:08:33;8.10;99.90
4787;DHT22;62338;48.832;9.422;2024-02-21T08:10:35;7.90;99.90
4787;DHT22;62338;48.832;9.422;2024-02-21T08:12:37;7.90;99.90
4787;DHT22;62338;48.832;9.422;2024-02-21T08:14:39;7.90;99.90
4787;DHT22;62338;48.832;9.422;2024-02-21T08:16:42;7.80;99.90
4787;DHT22;62338;48.832;9.422;2024-02-21T08:18:44;7.90;99.90
4787;DHT22;62338;48.832;9.422;2024-02-21T08:20:46;7.90;99.90
4787;DHT22;62338;48.832;9.422;2024-02-21T08:22:48;7.90;99.90
4787;DHT22;62338;48.832;9.422;2024-02-21T08:24:50;8.00;99.90
4787;DHT22;62338;48.832;9.422;2024-02-21T08:26:51;8.20;99.90
4787;DHT22;62338;48.832;9.422;2024-02-21T08:28:53;8.10;99.90
4787;DHT22;62338;48.832;9.422;2024-02-21T08:30:55;8.40;99.90
4787;DHT22;62338;48.832;9.422;2024-02-21T08:32:57;8.80;99.90
4787;DHT22;62338;48.832;9.422;2024-02-21T08:34:59;9.20;99.90
4787;DHT22;62338;48.832;9.422;2024-02-21T08:37:00;9.30;99.90
4787;DHT22;62338;48.832;9.422;2024-02-21T08:39:03;9.50;99.90
4787;DHT22;62338;48.832;9.422;2024-02-21T08:41:06;9.50;99.90
4787;DHT22;62338;48.832;9.422;2024-02-21T08:43:08;9.80;99.90
4787;DHT22;62338;48.832;9.422;2024-02-21T08:45:10;10.00;99.90
4787;DHT22;62338;48.832;9.422;2024-02-21T08:47:12;10.40;99.90
4787;DHT22;62338;48.832;9.422;2024-02-21T08:49:14;10.30;99.90
4787;DHT22;62338;48.832;9.422;2024-02-21T08:51:16;10.20;99.90
4787;DHT22;62338;48.832;9.422;2024-02-21T08:53:18;9.70;99.90
4787;DHT22;62338;48.832;9.422;2024-02-21T08:55:19;9.50;99.90
4787;DHT22;62338;48.832;9.422;2024-02-21T08:57:21;9.30;99.90
4787;DHT22;62338;48.832;9.422;2024-02-21T08:59:23;9.30;99.90
4787;DHT22;62338;48.832;9.422;2024-02-21T09:01:26;9.20;99.90
4787;DHT22;62338;48.832;9.422;2024-02-21T09:03:28;9.00;99.90
4787;DHT22;62338;48.832;9.422;2024-02-21T09:05:30;9.10;99.90
4787;DHT22;62338;48.832;9.422;2024-02-21T09:07:32;9.00;99.90
4787;DHT22;62338;48.832;9.422;2024-02-21T09:09:34;8.80;99.90
4787;DHT22;62338;48.832;9.422;2024-02-21T09:11:35;8.70;99.90
4787;DHT22;62338;48.832;9.422;2024-02-21T09:13:37;8.70;99.90
4787;DHT22;62338;48.832;9.422;2024-02-21T09:15:39;8.90;99.90
4787;DHT22;62338;48.832;9.422;2024-02-21T09:17:40;8.80;99.90
4787;DHT22;62338;48.832;9.422;2024-02-21T09:19:43;8.80;99.90
4787;DHT22;62338;48.832;9.422;2024-02-21T09:21:45;8.60;99.90
4787;DHT22;62338;48.832;9.422;2024-02-21T09:23:47;8.70;99.90
4787;DHT22;62338;48.832;9.422;2024-02-21T09:25:48;8.50;99.90
4787;DHT22;62338;48.832;9.422;2024-02-21T09:27:50;8.50;99.90
4787;DHT22;62338;48.832;9.422;2024-02-21T09:29:53;8.50;99.90
4787;DHT22;62338;48.832;9.422;2024-02-21T09:31:56;8.70;99.90
4787;DHT22;62338;48.832;9.422;2024-02-21T09:33:57;8.70;99.90
4787;DHT22;62338;48.832;9.422;2024-02-21T09:35:59;8.70;99.90
4787;DHT22;62338;48.832;9.422;2024-02-21T09:38:01;8.80;99.90
4787;DHT22;62338;48.832;9.422;2024-02-21T09:40:05;8.80;99.90
4787;DHT22;62338;48.832;9.422;2024-02-21T09:42:07;8.80;99.90
4787;DHT22;62338;48.832;9.422;2024-02-21T09:44:13;9.10;99.90
4787;DHT22;62338;48.832;9.422;2024-02-21T09:46:17;9.20;99.90
4787;DHT22;62338;48.832;9.422;2024-02-21T09:48:40;9.30;99.90
4787;DHT22;62338;48.832;9.422;2024-02-21T09:50:46;9.40;99.90
4787;DHT22;62338;48.832;9.422;2024-02-21T09:52:48;9.40;99.90
4787;DHT22;62338;48.832;9.422;2024-02-21T09:54:52;9.50;99.90
4787;DHT22;62338;48.832;9.422;2024-02-21T09:56:54;9.80;99.90
4787;DHT22;62338;48.832;9.422;2024-02-21T09:58:56;10.10;99.90
4787;DHT22;62338;48.832;9.422;2024-02-21T10:00:59;10.10;99.90
4787;DHT22;62338;48.832;9.422;2024-02-21T10:03:05;10.20;99.90
4787;DHT22;62338;48.832;9.422;2024-02-21T10:05:09;10.30;99.90
4787;DHT22;62338;48.832;9.422;2024-02-21T10:07:11;10.20;99.90
4787;DHT22;62338;48.832;9.422;2024-02-21T10:09:26;10.20;99.90
4787;DHT22;62338;48.832;9.422;2024-02-21T10:11:32;10.00;99.90
4787;DHT22;62338;48.832;9.422;2024-02-21T10:13:36;9.90;99.90
4787;DHT22;62338;48.832;9.422;2024-02-21T10:15:39;10.10;99.90
4787;DHT22;62338;48.832;9.422;2024-02-21T10:17:41;10.10;99.90
4787;DHT22;62338;48.832;9.422;2024-02-21T10:19:43;10.20;99.90
4787;DHT22;62338;48.832;9.422;2024-02-21T10:24:06;10.50;99.90
4787;DHT22;62338;48.832;9.422;2024-02-21T10:26:08;10.70;99.90
4787;DHT22;62338;48.832;9.422;2024-02-21T10:28:12;10.70;99.90
4787;DHT22;62338;48.832;9.422;2024-02-21T10:30:14;11.00;99.90
4787;DHT22;62338;48.832;9.422;2024-02-21T10:32:16;11.10;99.90
4787;DHT22;62338;48.832;9.422;2024-02-21T10:34:18;11.10;99.90
4787;DHT22;62338;48.832;9.422;2024-02-21T10:36:20;11.10;99.90
4787;DHT22;62338;48.832;9.422;2024-02-21T10:38:22;11.00;98.80
4787;DHT22;62338;48.832;9.422;2024-02-21T10:40:28;10.80;96.60
4787;DHT22;62338;48.832;9.422;2024-02-21T10:42:35;10.70;98.20
4787;DHT22;62338;48.832;9.422;2024-02-21T10:44:38;10.60;97.50
4787;DHT22;62338;48.832;9.422;2024-02-21T10:46:44;10.70;99.90
4787;DHT22;62338;48.832;9.422;2024-02-21T10:48:46;11.00;99.90
4787;DHT22;62338;48.832;9.422;2024-02-21T10:51:01;11.30;98.90
4787;DHT22;62338;48.832;9.422;2024-02-21T10:53:36;11.30;97.70
4787;DHT22;62338;48.832;9.422;2024-02-21T10:55:39;11.50;99.80
4787;DHT22;62338;48.832;9.422;2024-02-21T10:57:43;11.40;96.20
4787;DHT22;62338;48.832;9.422;2024-02-21T10:59:45;11.50;98.20
4787;DHT22;62338;48.832;9.422;2024-02-21T11:01:49;11.60;96.90
4787;DHT22;62338;48.832;9.422;2024-02-21T11:03:53;11.50;94.60
4787;DHT22;62338;48.832;9.422;2024-02-21T11:05:56;11.60;95.40
4787;DHT22;62338;48.832;9.422;2024-02-21T11:07:58;11.70;95.80
4787;DHT22;62338;48.832;9.422;2024-02-21T11:10:00;11.70;95.50
4787;DHT22;62338;48.832;9.422;2024-02-21T11:12:06;11.80;95.50
4787;DHT22;62338;48.832;9.422;2024-02-21T11:14:18;12.10;96.60
4787;DHT22;62338;48.832;9.422;2024-02-21T11:16:23;12.20;94.70
4787;DHT22;62338;48.832;9.422;2024-02-21T11:18:25;12.20;93.20
4787;DHT22;62338;48.832;9.422;2024-02-21T11:20:34;12.00;92.50
4787;DHT22;62338;48.832;9.422;2024-02-21T11:22:44;12.00;92.00
4787;DHT22;62338;48.832;9.422;2024-02-21T11:24:46;12.10;92.00
4787;DHT22;62338;48.832;9.422;2024-02-21T11:26:49;12.20;92.30
4787;DHT22;62338;48.832;9.422;2024-02-21T11:29:00;12.20;91.90
4787;DHT22;62338;48.832;9.422;2024-02-21T11:31:13;11.90;90.10
4787;DHT22;62338;48.832;9.422;2024-02-21T11:33:17;11.90;93.00
4787;DHT22;62338;48.832;9.422;2024-02-21T11:35:19;12.00;90.80
4787;DHT22;62338;48.832;9.422;2024-02-21T11:37:25;12.10;92.70
4787;DHT22;62338;48.832;9.422;2024-02-21T11:39:26;12.20;90.90
4787;DHT22;62338;48.832;9.422;2024-02-21T11:41:28;11.90;90.90
4787;DHT22;62338;48.832;9.422;2024-02-21T11:43:30;11.60;88.70
4787;DHT22;62338;48.832;9.422;2024-02-21T11:45:32;11.70;92.20
4787;DHT22;62338;48.832;9.422;2024-02-21T11:47:34;11.80;91.50
4787;DHT22;62338;48.832;9.422;2024-02-21T11:49:37;11.70;88.50
4787;DHT22;62338;48.832;9.422;2024-02-21T11:51:41;11.80;89.30
4787;DHT22;62338;48.832;9.422;2024-02-21T11:53:42;12.00;88.00
4787;DHT22;62338;48.832;9.422;2024-02-21T11:55:58;12.20;90.40
4787;DHT22;62338;48.832;9.422;2024-02-21T11:57:59;12.20;87.20
4787;DHT22;62338;48.832;9.422;2024-02-21T12:00:15;12.00;88.90
4787;DHT22;62338;48.832;9.422;2024-02-21T12:02:18;12.20;88.50
4787;DHT22;62338;48.832;9.422;2024-02-21T12:04:20;12.30;89.40
4787;DHT22;62338;48.832;9.422;2024-02-21T12:06:22;12.40;85.00
4787;DHT22;62338;48.832;9.422;2024-02-21T12:08:24;12.30;86.00
4787;DHT22;62338;48.832;9.422;2024-02-21T12:10:26;12.30;87.40
4787;DHT22;62338;48.832;9.422;2024-02-21T12:12:31;12.50;87.30
4787;DHT22;62338;48.832;9.422;2024-02-21T12:14:37;12.50;89.70
4787;DHT22;62338;48.832;9.422;2024-02-21T12:16:39;12.70;90.40
4787;DHT22;62338;48.832;9.422;2024-02-21T12:18:41;12.80;88.60
4787;DHT22;62338;48.832;9.422;2024-02-21T12:20:43;12.60;85.60
4787;DHT22;62338;48.832;9.422;2024-02-21T12:22:45;12.50;88.80
4787;DHT22;62338;48.832;9.422;2024-02-21T12:24:51;12.50;88.60
4787;DHT22;62338;48.832;9.422;2024-02-21T12:26:53;12.40;85.80
4787;DHT22;62338;48.832;9.422;2024-02-21T12:28:55;12.50;86.10
4787;DHT22;62338;48.832;9.422;2024-02-21T12:30:57;12.40;84.20
4787;DHT22;62338;48.832;9.422;2024-02-21T12:32:59;12.10;83.60
4787;DHT22;62338;48.832;9.422;2024-02-21T12:35:03;12.20;87.60
4787;DHT22;62338;48.832;9.422;2024-02-21T12:37:05;12.30;88.00
4787;DHT22;62338;48.832;9.422;2024-02-21T12:39:07;12.20;84.80
4787;DHT22;62338;48.832;9.422;2024-02-21T12:41:10;12.00;84.20
4787;DHT22;62338;48.832;9.422;2024-02-21T12:43:11;12.00;87.60
4787;DHT22;62338;48.832;9.422;2024-02-21T12:45:14;12.10;87.00
4787;DHT22;62338;48.832;9.422;2024-02-21T12:47:17;12.30;85.10
4787;DHT22;62338;48.832;9.422;2024-02-21T12:49:21;12.20;86.20
4787;DHT22;62338;48.832;9.422;2024-02-21T12:51:23;12.30;85.80
4787;DHT22;62338;48.832;9.422;2024-02-21T12:53:24;12.40;86.90
4787;DHT22;62338;48.832;9.422;2024-02-21T12:55:34;12.50;82.40
4787;DHT22;62338;48.832;9.422;2024-02-21T12:57:35;12.30;82.90
4787;DHT22;62338;48.832;9.422;2024-02-21T12:59:38;12.40;87.00
4787;DHT22;62338;48.832;9.422;2024-02-21T13:01:40;12.50;86.30
4787;DHT22;62338;48.832;9.422;2024-02-21T13:03:42;12.30;78.90
4787;DHT22;62338;48.832;9.422;2024-02-21T13:05:44;12.10;78.80
4787;DHT22;62338;48.832;9.422;2024-02-21T13:07:45;12.00;79.90
4787;DHT22;62338;48.832;9.422;2024-02-21T13:09:47;11.90;79.20
4787;DHT22;62338;48.832;9.422;2024-02-21T13:11:49;11.70;78.90
4787;DHT22;62338;48.832;9.422;2024-02-21T13:13:53;11.80;78.40
4787;DHT22;62338;48.832;9.422;2024-02-21T13:15:54;11.80;79.00
4787;DHT22;62338;48.832;9.422;2024-02-21T13:17:57;12.00;79.20
4787;DHT22;62338;48.832;9.422;2024-02-21T13:19:59;11.90;78.30
4787;DHT22;62338;48.832;9.422;2024-02-21T13:22:01;12.00;80.40